Terminal Aerodrome Forecast
Issued by NWS

Home | Current Version | Previous Version | Text Only | Print | Product List | Glossary On
Versions: 1 2 3 4 5 6 7 8 9 10 11 12 13 14
000
FTUS43 KTOP 260022 AAA
TAFFOE
TAF AMD
KFOE 260022Z 2600/2624 36007KT P6SM -SHRA VCTS BKN040CB
      TEMPO 2600/2604 4SM TSRA OVC012CB
     FM260400 34011KT P6SM -SHRA VCTS BKN035CB
      TEMPO 2606/2610 4SM TS OVC012CB
     FM261000 34007KT 6SM -SHRA VCTS SCT025CB
     FM261500 33008KT 4SM -SHRA VCTS SCT006 SCT015CB=

USA.gov is the U.S. government's official web portal to all federal, state and local government web resources and services.